createdAt,value
2023-01-22T00:00:24.160Z,22.00
2023-01-22T00:02:50.947Z,22.42
2023-01-22T00:05:17.729Z,22.27
2023-01-22T00:07:44.494Z,22.00
2023-01-22T00:10:12.079Z,17.70
2023-01-22T00:12:39.101Z,19.70
2023-01-22T00:15:06.356Z,19.27
2023-01-22T00:17:33.046Z,20.55
2023-01-22T00:19:59.789Z,20.30
2023-01-22T00:22:26.490Z,19.02
2023-01-22T00:24:53.231Z,18.52
2023-01-22T00:27:19.877Z,19.38
2023-01-22T00:29:47.624Z,19.88
2023-01-22T00:32:14.535Z,17.15
2023-01-22T00:34:41.351Z,19.23
2023-01-22T00:37:08.053Z,17.40
2023-01-22T00:39:34.797Z,17.70
2023-01-22T00:42:01.498Z,16.08
2023-01-22T00:44:28.231Z,15.80
2023-01-22T00:46:54.936Z,16.75
2023-01-22T00:49:21.633Z,15.10
2023-01-22T00:51:48.311Z,13.80
2023-01-22T00:54:15.092Z,14.82
2023-01-22T00:56:41.768Z,14.73
2023-01-22T00:59:10.658Z,13.85
2023-01-22T01:01:39.351Z,14.35
2023-01-22T01:04:06.435Z,14.48
2023-01-22T01:06:33.375Z,14.57
2023-01-22T01:09:00.140Z,29.10
2023-01-22T01:11:27.582Z,38.25
2023-01-22T01:13:55.749Z,24.80
2023-01-22T01:16:29.777Z,23.17
2023-01-22T01:19:04.389Z,28.27
2023-01-22T01:21:31.599Z,36.08
2023-01-22T01:23:59.730Z,24.00
2023-01-22T01:26:27.267Z,8.13
2023-01-22T01:28:55.744Z,24.17
2023-01-22T01:31:24.337Z,40.10
2023-01-22T01:33:51.117Z,43.40
2023-01-22T01:36:35.314Z,15.55
2023-01-22T01:39:07.968Z,21.45
2023-01-22T01:41:34.759Z,28.27
2023-01-22T01:44:21.650Z,16.77
2023-01-22T01:46:55.793Z,33.78
2023-01-22T01:49:42.591Z,26.17
2023-01-22T01:52:12.556Z,24.77
2023-01-22T01:54:42.655Z,30.00
2023-01-22T01:57:15.018Z,12.07
2023-01-22T01:59:43.993Z,28.17
2023-01-22T02:02:10.795Z,22.38
2023-01-22T02:04:37.661Z,20.98
2023-01-22T02:07:05.516Z,19.60
2023-01-22T02:09:34.072Z,23.40
2023-01-22T02:12:02.195Z,14.25
2023-01-22T02:14:37.479Z,23.35
2023-01-22T02:17:24.179Z,32.50
2023-01-22T02:19:51.340Z,22.08
2023-01-22T02:22:21.651Z,20.30
2023-01-22T02:24:49.443Z,29.27
2023-01-22T02:27:17.648Z,26.95
2023-01-22T02:29:45.710Z,35.38
2023-01-22T02:32:12.905Z,47.03
2023-01-22T02:34:39.819Z,38.55
2023-01-22T02:37:06.968Z,42.85
2023-01-22T02:39:33.837Z,24.50
2023-01-22T02:42:04.892Z,30.05
2023-01-22T02:44:31.802Z,18.15
2023-01-22T02:46:58.589Z,22.20
2023-01-22T02:49:26.972Z,22.30
2023-01-22T02:51:53.763Z,33.42
2023-01-22T02:54:21.410Z,42.85
2023-01-22T02:56:48.590Z,47.08
2023-01-22T02:59:15.573Z,29.45
2023-01-22T03:01:42.695Z,31.85
2023-01-22T03:04:12.274Z,23.33
2023-01-22T03:06:41.953Z,20.77
2023-01-22T03:09:10.549Z,15.60
2023-01-22T03:11:40.379Z,18.48
2023-01-22T03:14:32.962Z,16.27
2023-01-22T03:17:18.722Z,16.42
2023-01-22T03:20:03.948Z,14.65
2023-01-22T03:22:32.125Z,15.57
2023-01-22T03:25:00.570Z,15.45
2023-01-22T03:27:30.401Z,14.70
2023-01-22T03:29:58.221Z,14.50
2023-01-22T03:32:25.486Z,16.55
2023-01-22T03:34:53.697Z,16.30
2023-01-22T03:37:22.100Z,15.23
2023-01-22T03:39:52.208Z,17.85
2023-01-22T03:42:30.502Z,16.55
2023-01-22T03:44:57.233Z,20.20
2023-01-22T03:47:24.838Z,19.65
2023-01-22T03:49:51.563Z,16.52
2023-01-22T03:52:18.341Z,16.83
2023-01-22T03:54:45.207Z,15.05
2023-01-22T03:57:12.236Z,14.33
2023-01-22T03:59:41.737Z,14.80
2023-01-22T04:02:08.511Z,15.15
2023-01-22T04:04:47.765Z,15.00
2023-01-22T04:07:14.620Z,14.05
2023-01-22T04:09:41.951Z,14.02
2023-01-22T04:12:08.784Z,14.98
2023-01-22T04:14:35.605Z,14.60
2023-01-22T04:19:50.311Z,16.50
2023-01-22T04:22:37.888Z,17.63
2023-01-22T04:25:06.481Z,15.20
2023-01-22T04:27:37.649Z,15.63
2023-01-22T04:30:05.968Z,15.23
2023-01-22T04:32:33.124Z,12.60
2023-01-22T04:35:17.010Z,12.52
2023-01-22T04:37:49.362Z,13.07
2023-01-22T04:40:16.708Z,12.53
2023-01-22T04:42:45.102Z,12.55
2023-01-22T04:45:12.484Z,12.70
2023-01-22T04:47:47.557Z,12.55
2023-01-22T04:50:20.430Z,11.90
2023-01-22T04:52:47.639Z,11.65
2023-01-22T04:55:14.905Z,13.02
2023-01-22T04:57:48.934Z,11.13
2023-01-22T05:00:17.427Z,11.35
2023-01-22T05:02:44.325Z,10.93
2023-01-22T05:05:11.909Z,11.88
2023-01-22T05:07:38.779Z,11.82
2023-01-22T05:10:06.024Z,11.85
2023-01-22T05:12:34.383Z,11.63
2023-01-22T05:15:04.120Z,11.35
2023-01-22T05:17:34.905Z,11.35
2023-01-22T05:20:01.763Z,11.57
2023-01-22T05:22:28.485Z,12.57
2023-01-22T05:24:55.410Z,12.02
2023-01-22T05:27:22.751Z,13.23
2023-01-22T05:29:59.975Z,11.90
2023-01-22T05:32:57.076Z,10.52
2023-01-22T05:35:24.774Z,10.88
2023-01-22T05:37:51.549Z,11.57
2023-01-22T05:40:19.527Z,11.38
2023-01-22T05:42:46.483Z,12.02
2023-01-22T05:45:14.110Z,11.75
2023-01-22T05:47:58.342Z,16.70
2023-01-22T05:50:36.810Z,11.48
2023-01-22T05:53:09.164Z,12.30
2023-01-22T05:55:36.377Z,10.40
2023-01-22T05:58:06.325Z,11.68
2023-01-22T06:00:34.902Z,10.25
2023-01-22T06:03:07.439Z,10.73
2023-01-22T06:05:43.790Z,10.45
2023-01-22T06:08:10.514Z,10.48
2023-01-22T06:10:45.014Z,10.63
2023-01-22T06:13:13.160Z,10.55
2023-01-22T06:15:43.899Z,9.82
2023-01-22T06:18:29.672Z,10.73
2023-01-22T06:21:01.618Z,9.80
2023-01-22T06:23:30.628Z,9.98
2023-01-22T06:25:59.633Z,11.05
2023-01-22T06:28:26.434Z,8.00
2023-01-22T06:30:57.328Z,8.70
2023-01-22T06:33:24.445Z,9.85
2023-01-22T06:35:55.439Z,9.50
2023-01-22T06:38:23.688Z,9.00
2023-01-22T06:40:52.721Z,9.13
2023-01-22T06:43:19.786Z,9.10
2023-01-22T06:45:49.529Z,9.27
2023-01-22T06:48:18.453Z,8.80
2023-01-22T06:50:45.321Z,8.68
2023-01-22T06:53:12.127Z,8.70
2023-01-22T06:55:38.996Z,8.40
2023-01-22T06:58:06.487Z,9.35
2023-01-22T07:00:33.353Z,9.13
2023-01-22T07:03:00.110Z,8.40
2023-01-22T07:05:27.478Z,9.98
2023-01-22T07:07:55.233Z,10.05
2023-01-22T07:12:50.211Z,12.13
2023-01-22T07:15:17.037Z,11.80
2023-01-22T07:17:43.807Z,11.98
2023-01-22T07:20:11.209Z,9.68
2023-01-22T07:22:37.896Z,10.70
2023-01-22T07:25:04.999Z,8.40
2023-01-22T07:27:32.631Z,9.68
2023-01-22T07:29:59.426Z,11.23
2023-01-22T07:32:26.367Z,8.32
2023-01-22T07:34:53.030Z,9.57
2023-01-22T07:37:19.763Z,9.27
2023-01-22T07:39:46.728Z,9.52
2023-01-22T07:42:13.903Z,9.23
2023-01-22T07:44:41.479Z,12.32
2023-01-22T07:47:09.064Z,9.85
2023-01-22T07:49:35.793Z,14.73
2023-01-22T07:52:02.541Z,11.43
2023-01-22T07:54:29.311Z,10.35
2023-01-22T07:56:56.008Z,13.52
2023-01-22T07:59:22.847Z,13.55
2023-01-22T08:01:49.582Z,11.65
2023-01-22T08:04:16.281Z,11.05
2023-01-22T08:06:43.005Z,9.73
2023-01-22T08:09:09.732Z,11.25
2023-01-22T08:11:36.468Z,10.70
2023-01-22T08:14:03.272Z,9.70
2023-01-22T08:16:29.952Z,10.13
2023-01-22T08:18:56.675Z,9.55
2023-01-22T08:21:23.376Z,9.48
2023-01-22T08:23:50.126Z,8.85
2023-01-22T08:26:16.890Z,9.00
2023-01-22T08:28:43.575Z,23.27
2023-01-22T08:31:19.227Z,14.80
2023-01-22T08:33:46.213Z,15.60
2023-01-22T08:36:12.913Z,12.95
2023-01-22T08:38:39.630Z,13.85
2023-01-22T08:41:06.369Z,10.38
2023-01-22T08:43:33.026Z,11.18
2023-01-22T08:45:59.762Z,8.90
2023-01-22T08:48:27.147Z,9.18
2023-01-22T08:50:53.894Z,9.25
2023-01-22T08:53:20.656Z,9.23
2023-01-22T08:55:50.627Z,9.80
2023-01-22T08:58:17.739Z,10.32
2023-01-22T09:00:44.666Z,11.63
2023-01-22T09:03:11.438Z,13.37
2023-01-22T09:05:39.349Z,9.25
2023-01-22T09:08:07.768Z,10.77
2023-01-22T09:10:34.925Z,12.60
2023-01-22T09:13:01.658Z,9.80
2023-01-22T09:15:28.423Z,9.75
2023-01-22T09:17:55.443Z,9.57
2023-01-22T09:20:22.244Z,15.68
2023-01-22T09:22:49.432Z,9.85
2023-01-22T09:25:16.533Z,13.90
2023-01-22T09:27:43.587Z,8.90
2023-01-22T09:30:11.423Z,17.93
2023-01-22T09:35:05.134Z,10.65
2023-01-22T09:37:31.869Z,14.35
2023-01-22T09:39:58.572Z,28.35
2023-01-22T09:42:35.257Z,14.98
2023-01-22T09:45:09.995Z,17.65
2023-01-22T09:48:00.624Z,23.17
2023-01-22T09:50:30.363Z,22.33
2023-01-22T09:53:02.351Z,19.73
2023-01-22T09:55:33.256Z,18.38
2023-01-22T09:58:03.011Z,29.08
2023-01-22T10:00:44.481Z,11.02
2023-01-22T10:03:22.527Z,23.58
2023-01-22T10:05:56.228Z,12.00
2023-01-22T10:08:31.963Z,17.38
2023-01-22T10:11:02.746Z,12.57
2023-01-22T10:13:35.010Z,9.52
2023-01-22T10:16:02.341Z,15.82
2023-01-22T10:18:38.636Z,16.25
2023-01-22T10:21:12.746Z,9.30
2023-01-22T10:23:39.430Z,12.38
2023-01-22T10:26:25.315Z,20.92
2023-01-22T10:28:55.801Z,10.00
2023-01-22T10:31:42.139Z,12.73
2023-01-22T10:34:21.161Z,13.43
2023-01-22T10:36:52.803Z,12.38
2023-01-22T10:39:20.891Z,14.00
2023-01-22T10:41:48.700Z,7.60
2023-01-22T10:44:26.755Z,14.52
2023-01-22T10:46:55.520Z,14.90
2023-01-22T10:49:27.309Z,13.40
2023-01-22T10:51:56.937Z,11.60
2023-01-22T10:54:30.542Z,10.48
2023-01-22T10:57:19.451Z,9.20
2023-01-22T11:00:21.323Z,23.15
2023-01-22T11:02:50.504Z,10.55
2023-01-22T11:05:26.199Z,10.45
2023-01-22T11:07:57.742Z,11.70
2023-01-22T11:10:47.706Z,11.93
2023-01-22T11:13:48.304Z,9.02
2023-01-22T11:16:20.985Z,10.15
2023-01-22T11:19:13.994Z,9.52
2023-01-22T11:21:52.874Z,9.75
2023-01-22T11:24:29.870Z,10.45
2023-01-22T11:27:20.949Z,6.57
2023-01-22T11:29:59.637Z,10.98
2023-01-22T11:33:10.508Z,12.45
2023-01-22T11:35:56.110Z,13.40
2023-01-22T11:38:43.897Z,10.65
2023-01-22T11:41:23.489Z,11.43
2023-01-22T11:44:05.185Z,11.48
2023-01-22T11:46:48.685Z,11.73
2023-01-22T11:49:25.120Z,9.48
2023-01-22T11:52:12.109Z,9.00
2023-01-22T11:54:57.271Z,9.13
2023-01-22T11:57:33.183Z,9.30
2023-01-22T12:00:18.241Z,9.52
2023-01-22T12:03:12.792Z,20.25
2023-01-22T12:05:58.104Z,7.28
2023-01-22T12:08:33.594Z,9.55
2023-01-22T12:11:08.015Z,8.48
2023-01-22T12:14:10.480Z,8.38
2023-01-22T12:16:58.885Z,8.45
2023-01-22T12:20:02.968Z,8.23
2023-01-22T12:22:46.548Z,8.90
2023-01-22T12:25:50.742Z,20.45
2023-01-22T12:28:37.629Z,16.48
2023-01-22T12:31:16.933Z,15.65
2023-01-22T12:33:44.475Z,11.35
2023-01-22T12:36:16.527Z,18.13
2023-01-22T12:38:49.405Z,10.88
2023-01-22T12:41:42.386Z,12.13
2023-01-22T12:44:21.401Z,10.02
2023-01-22T12:46:59.902Z,9.93
2023-01-22T12:49:27.389Z,11.93
2023-01-22T12:51:55.910Z,10.13
2023-01-22T12:54:28.650Z,9.43
2023-01-22T12:57:10.774Z,10.00
2023-01-22T12:59:44.804Z,8.63
2023-01-22T13:02:35.921Z,9.32
2023-01-22T13:05:13.142Z,9.35
2023-01-22T13:07:43.782Z,9.55
2023-01-22T13:10:29.401Z,12.95
2023-01-22T13:13:00.127Z,10.80
2023-01-22T13:15:37.370Z,9.73
2023-01-22T13:18:19.600Z,7.53
2023-01-22T13:20:53.415Z,8.95
2023-01-22T13:23:21.685Z,8.02
2023-01-22T13:25:54.837Z,8.80
2023-01-22T13:28:22.760Z,9.15
2023-01-22T13:33:25.629Z,8.20
2023-01-22T13:35:52.478Z,8.40
2023-01-22T13:38:22.319Z,9.45
2023-01-22T13:41:00.274Z,8.85
2023-01-22T13:43:30.664Z,7.60
2023-01-22T13:45:58.589Z,9.02
2023-01-22T13:48:26.662Z,9.77
2023-01-22T13:51:02.403Z,7.90
2023-01-22T13:53:44.718Z,8.05
2023-01-22T13:56:21.990Z,40.53
2023-01-22T13:58:49.567Z,33.35
2023-01-22T14:01:46.245Z,13.38
2023-01-22T14:04:35.508Z,14.50
2023-01-22T14:07:02.339Z,19.92
2023-01-22T14:09:35.248Z,18.77
2023-01-22T14:12:17.711Z,13.63
2023-01-22T14:14:45.103Z,7.78
2023-01-22T14:17:29.123Z,11.00
2023-01-22T14:19:57.367Z,12.57
2023-01-22T14:22:24.507Z,14.30
2023-01-22T14:24:54.820Z,11.30
2023-01-22T14:27:23.243Z,9.27
2023-01-22T14:29:53.534Z,9.57
2023-01-22T14:32:20.562Z,18.80
2023-01-22T14:34:47.329Z,16.35
2023-01-22T14:37:15.799Z,12.07
2023-01-22T14:39:42.653Z,10.10
2023-01-22T14:42:09.393Z,8.57
2023-01-22T14:44:36.189Z,8.73
2023-01-22T14:47:04.126Z,12.98
2023-01-22T14:51:57.838Z,12.10
2023-01-22T14:54:25.220Z,10.65
2023-01-22T14:56:51.921Z,10.50
2023-01-22T14:59:20.645Z,11.63
2023-01-22T15:01:47.702Z,12.80
2023-01-22T15:04:14.582Z,12.40
2023-01-22T15:06:41.234Z,14.45
2023-01-22T15:09:07.933Z,8.45
2023-01-22T15:11:34.637Z,12.25
2023-01-22T15:14:02.280Z,17.15
2023-01-22T15:16:30.252Z,17.00
2023-01-22T15:18:57.010Z,11.90
2023-01-22T15:21:24.096Z,16.77
2023-01-22T15:23:51.063Z,14.98
2023-01-22T15:26:25.139Z,19.80
2023-01-22T15:28:51.886Z,20.02
2023-01-22T15:31:18.587Z,18.00
2023-01-22T15:33:45.380Z,15.70
2023-01-22T15:36:12.073Z,15.57
2023-01-22T15:38:38.780Z,26.80
2023-01-22T15:41:18.512Z,27.58
2023-01-22T15:43:46.305Z,20.77
2023-01-22T15:46:13.001Z,20.60
2023-01-22T15:48:39.784Z,15.88
2023-01-22T15:51:11.709Z,20.75
2023-01-22T15:53:38.679Z,17.45
2023-01-22T15:56:06.455Z,18.37
2023-01-22T15:58:34.457Z,12.40
2023-01-22T16:01:01.785Z,56.47
2023-01-22T16:03:28.585Z,45.50
2023-01-22T16:05:55.395Z,34.33
2023-01-22T16:08:22.094Z,18.80
2023-01-22T16:10:48.747Z,34.03
2023-01-22T16:13:15.476Z,18.65
2023-01-22T16:15:42.174Z,17.95
2023-01-22T16:18:08.945Z,16.73
2023-01-22T16:20:35.631Z,15.73
2023-01-22T16:23:02.302Z,15.15
2023-01-22T16:25:28.999Z,14.50
2023-01-22T16:27:55.682Z,18.42
2023-01-22T16:30:22.391Z,17.38
2023-01-22T16:32:51.174Z,15.07
2023-01-22T16:35:18.459Z,17.10
2023-01-22T16:37:45.143Z,15.27
2023-01-22T16:40:13.419Z,23.98
2023-01-22T16:42:40.180Z,13.15
2023-01-22T16:45:07.379Z,13.30
2023-01-22T16:47:34.036Z,12.70
2023-01-22T16:50:00.852Z,12.18
2023-01-22T16:52:27.566Z,13.88
2023-01-22T16:54:54.326Z,17.02
2023-01-22T16:57:21.035Z,15.15
2023-01-22T16:59:47.769Z,15.88
2023-01-22T17:02:16.305Z,12.82
2023-01-22T17:04:43.435Z,17.50
2023-01-22T17:07:20.471Z,18.00
2023-01-22T17:09:54.519Z,12.93
2023-01-22T17:12:21.288Z,12.45
2023-01-22T17:14:52.588Z,11.35
2023-01-22T17:17:19.358Z,9.57
2023-01-22T17:19:46.093Z,34.92
2023-01-22T17:22:13.322Z,14.50
2023-01-22T17:24:42.577Z,10.38
2023-01-22T17:27:09.555Z,11.32
2023-01-22T17:29:36.490Z,12.63
2023-01-22T17:32:03.979Z,15.87
2023-01-22T17:34:31.005Z,13.88
2023-01-22T17:36:57.704Z,11.80
2023-01-22T17:39:24.771Z,15.35
2023-01-22T17:41:51.512Z,13.23
2023-01-22T17:44:18.220Z,10.95
2023-01-22T17:46:45.066Z,11.52
2023-01-22T17:49:11.798Z,12.73
2023-01-22T17:51:38.791Z,25.27
2023-01-22T17:54:06.260Z,18.47
2023-01-22T17:56:35.727Z,15.52
2023-01-22T17:59:04.865Z,12.40
2023-01-22T18:01:33.387Z,15.25
2023-01-22T18:04:02.842Z,16.70
2023-01-22T18:06:29.959Z,17.90
2023-01-22T18:08:57.535Z,18.30
2023-01-22T18:11:29.865Z,17.95
2023-01-22T18:14:04.601Z,14.27
2023-01-22T18:16:37.802Z,18.65
2023-01-22T18:19:07.239Z,14.35
2023-01-22T18:21:35.879Z,14.88
2023-01-22T18:24:04.744Z,15.63
2023-01-22T18:26:31.573Z,14.20
2023-01-22T18:28:59.357Z,13.75
2023-01-22T18:31:27.841Z,12.10
2023-01-22T18:34:00.753Z,14.77
2023-01-22T18:36:29.952Z,13.27
2023-01-22T18:39:09.463Z,13.57
2023-01-22T18:41:37.007Z,13.07
2023-01-22T18:44:04.225Z,13.10
2023-01-22T18:46:33.886Z,16.45
2023-01-22T18:49:04.544Z,16.08
2023-01-22T18:51:32.903Z,14.95
2023-01-22T18:54:01.714Z,12.95
2023-01-22T18:56:28.434Z,11.73
2023-01-22T18:58:59.086Z,13.60
2023-01-22T19:01:31.408Z,12.05
2023-01-22T19:04:01.021Z,13.35
2023-01-22T19:06:37.087Z,12.50
2023-01-22T19:09:07.329Z,12.98
2023-01-22T19:11:37.194Z,14.77
2023-01-22T19:14:07.171Z,13.48
2023-01-22T19:16:34.136Z,15.35
2023-01-22T19:19:04.599Z,17.17
2023-01-22T19:21:31.741Z,14.02
2023-01-22T19:24:01.227Z,29.45
2023-01-22T19:26:31.200Z,17.05
2023-01-22T19:29:01.119Z,15.57
2023-01-22T19:31:30.948Z,12.98
2023-01-22T19:33:58.114Z,13.23
2023-01-22T19:36:28.164Z,17.47
2023-01-22T19:39:00.516Z,21.27
2023-01-22T19:41:28.088Z,18.75
2023-01-22T19:43:57.862Z,18.92
2023-01-22T19:46:26.117Z,19.13
2023-01-22T19:48:54.704Z,17.52
2023-01-22T19:51:22.286Z,16.48
2023-01-22T19:53:49.412Z,20.10
2023-01-22T19:56:21.242Z,16.63
2023-01-22T19:58:48.968Z,17.77
2023-01-22T20:01:16.592Z,17.13
2023-01-22T20:03:44.069Z,16.48
2023-01-22T20:06:12.734Z,16.70
2023-01-22T20:08:39.484Z,15.98
2023-01-22T20:11:08.900Z,15.77
2023-01-22T20:13:36.902Z,22.88
2023-01-22T20:18:30.862Z,18.42
2023-01-22T20:21:02.116Z,17.75
2023-01-22T20:23:29.476Z,16.35
2023-01-22T20:25:56.747Z,21.75
2023-01-22T20:28:23.886Z,17.25
2023-01-22T20:31:03.964Z,15.47
2023-01-22T20:33:32.117Z,13.75
2023-01-22T20:36:02.074Z,13.63
2023-01-22T20:38:29.221Z,13.85
2023-01-22T20:41:00.303Z,26.58
2023-01-22T20:43:27.037Z,14.88
2023-01-22T20:46:00.352Z,15.13
2023-01-22T20:48:28.299Z,14.05
2023-01-22T20:53:22.830Z,14.07
2023-01-22T20:58:25.253Z,15.52
2023-01-22T21:00:51.992Z,16.20
2023-01-22T21:03:19.160Z,14.25
2023-01-22T21:05:45.841Z,14.27
2023-01-22T21:08:12.591Z,14.35
2023-01-22T21:10:39.283Z,13.80
2023-01-22T21:13:06.077Z,13.65
2023-01-22T21:15:33.566Z,14.98
2023-01-22T21:18:00.275Z,16.45
2023-01-22T21:20:26.995Z,18.08
2023-01-22T21:22:53.682Z,32.55
2023-01-22T21:25:20.376Z,27.60
2023-01-22T21:27:47.511Z,19.38
2023-01-22T21:30:15.024Z,18.08
2023-01-22T21:32:41.715Z,17.03
2023-01-22T21:35:08.850Z,16.67
2023-01-22T21:37:35.546Z,16.92
2023-01-22T21:40:02.260Z,13.40
2023-01-22T21:42:47.777Z,17.30
2023-01-22T21:45:33.046Z,17.75
2023-01-22T21:47:59.781Z,18.25
2023-01-22T21:50:26.518Z,17.92
2023-01-22T21:52:54.436Z,17.35
2023-01-22T21:57:48.961Z,20.60
2023-01-22T22:00:17.045Z,18.77
2023-01-22T22:02:44.020Z,21.92
2023-01-22T22:05:11.681Z,16.83
2023-01-22T22:07:38.400Z,21.92
2023-01-22T22:10:05.660Z,31.45
2023-01-22T22:12:32.479Z,22.38
2023-01-22T22:14:59.177Z,19.40
2023-01-22T22:17:25.839Z,29.38
2023-01-22T22:19:52.532Z,19.45
2023-01-22T22:22:20.235Z,19.77
2023-01-22T22:24:46.888Z,21.90
2023-01-22T22:27:13.609Z,17.88
2023-01-22T22:29:40.353Z,16.23
2023-01-22T22:32:07.075Z,19.98
2023-01-22T22:34:33.844Z,18.38
2023-01-22T22:37:00.515Z,17.98
2023-01-22T22:39:27.209Z,19.08
2023-01-22T22:41:53.968Z,21.08
2023-01-22T22:44:20.718Z,21.80
2023-01-22T22:46:47.474Z,18.15
2023-01-22T22:49:14.488Z,15.38
2023-01-22T22:51:42.963Z,18.10
2023-01-22T22:54:17.921Z,14.55
2023-01-22T22:56:46.093Z,20.33
2023-01-22T22:59:13.672Z,18.65
2023-01-22T23:01:40.363Z,19.27
2023-01-22T23:04:08.164Z,17.77
2023-01-22T23:06:36.410Z,16.08
2023-01-22T23:09:14.265Z,18.17
2023-01-22T23:11:41.460Z,20.20
2023-01-22T23:14:10.126Z,18.77
2023-01-22T23:16:39.602Z,15.68
2023-01-22T23:19:11.880Z,14.98
2023-01-22T23:21:41.925Z,15.18
2023-01-22T23:24:12.071Z,14.35
2023-01-22T23:26:40.201Z,16.13
2023-01-22T23:29:09.280Z,16.90
2023-01-22T23:31:38.426Z,18.23
2023-01-22T23:36:49.493Z,15.77
2023-01-22T23:39:20.235Z,16.73
2023-01-22T23:41:47.105Z,16.25
2023-01-22T23:44:13.818Z,17.35
2023-01-22T23:46:41.157Z,17.20
2023-01-22T23:49:07.942Z,18.25
2023-01-22T23:51:34.765Z,16.00
2023-01-22T23:54:01.641Z,16.58
2023-01-22T23:56:31.816Z,16.73
2023-01-22T23:58:58.786Z,16.48
